createdAt,value
2019-01-29T00:00:58.650Z,16.20
2019-01-29T00:03:25.969Z,13.95
2019-01-29T00:05:53.372Z,19.67
2019-01-29T00:08:20.732Z,14.10
2019-01-29T00:10:48.029Z,10.35
2019-01-29T00:13:15.971Z,7.47
2019-01-29T00:15:43.294Z,7.00
2019-01-29T00:18:10.613Z,6.92
2019-01-29T00:20:38.370Z,7.12
2019-01-29T00:23:05.695Z,7.47
2019-01-29T00:25:33.154Z,8.40
2019-01-29T00:28:00.508Z,8.55
2019-01-29T00:30:27.912Z,8.13
2019-01-29T00:32:55.230Z,6.75
2019-01-29T00:35:22.528Z,8.50
2019-01-29T00:37:49.927Z,9.75
2019-01-29T00:40:17.238Z,13.93
2019-01-29T00:42:44.470Z,14.75
2019-01-29T00:45:12.038Z,13.62
2019-01-29T00:47:39.312Z,13.70
2019-01-29T00:50:07.156Z,11.80
2019-01-29T00:52:41.873Z,12.53
2019-01-29T00:55:05.208Z,13.83
2019-01-29T00:57:32.512Z,13.43
2019-01-29T00:59:59.818Z,13.75
2019-01-29T01:02:27.152Z,10.80
2019-01-29T01:04:54.457Z,9.55
2019-01-29T01:07:22.190Z,10.18
2019-01-29T01:09:56.982Z,11.30
2019-01-29T01:12:18.696Z,10.88
2019-01-29T01:14:45.976Z,13.20
2019-01-29T01:17:13.397Z,10.48
2019-01-29T01:19:40.688Z,12.90
2019-01-29T01:22:08.113Z,10.68
2019-01-29T01:24:35.526Z,10.85
2019-01-29T01:27:03.288Z,11.78
2019-01-29T01:29:30.604Z,15.40
2019-01-29T01:31:57.958Z,15.30
2019-01-29T01:34:25.397Z,15.10
2019-01-29T01:36:52.822Z,16.07
2019-01-29T01:39:20.198Z,14.30
2019-01-29T01:41:47.909Z,13.98
2019-01-29T01:44:15.249Z,12.28
2019-01-29T01:46:42.642Z,13.30
2019-01-29T01:49:09.924Z,11.10
2019-01-29T01:51:37.256Z,10.98
2019-01-29T01:54:04.763Z,13.10
2019-01-29T01:56:32.088Z,11.03
2019-01-29T01:58:59.366Z,11.45
2019-01-29T02:01:26.761Z,9.23
2019-01-29T02:03:54.209Z,8.78
2019-01-29T02:06:21.636Z,10.03
2019-01-29T02:08:49.037Z,9.80
2019-01-29T02:11:16.344Z,9.13
2019-01-29T02:13:44.025Z,9.18
2019-01-29T02:16:11.331Z,8.00
2019-01-29T02:18:38.648Z,9.08
2019-01-29T02:21:06.068Z,9.60
2019-01-29T02:23:33.452Z,9.53
2019-01-29T02:26:00.744Z,9.60
2019-01-29T02:28:28.054Z,9.80
2019-01-29T02:30:55.384Z,10.28
2019-01-29T02:33:25.080Z,8.73
2019-01-29T02:35:51.900Z,9.43
2019-01-29T02:38:19.221Z,10.30
2019-01-29T02:40:46.613Z,9.40
2019-01-29T02:43:13.962Z,9.58
2019-01-29T02:45:41.355Z,9.83
2019-01-29T02:48:08.569Z,7.78
2019-01-29T02:50:35.862Z,9.85
2019-01-29T02:53:03.377Z,9.75
2019-01-29T02:55:30.664Z,8.53
2019-01-29T02:57:57.944Z,9.18
2019-01-29T03:00:26.117Z,9.40
2019-01-29T03:02:53.682Z,8.68
2019-01-29T03:05:21.028Z,8.30
2019-01-29T03:07:48.736Z,8.18
2019-01-29T03:10:18.478Z,8.53
2019-01-29T03:12:45.804Z,9.68
2019-01-29T03:15:15.925Z,12.73
2019-01-29T03:17:43.409Z,17.92
2019-01-29T03:20:11.197Z,21.25
2019-01-29T03:22:38.759Z,20.43
2019-01-29T03:25:07.639Z,21.42
2019-01-29T03:27:35.045Z,19.92
2019-01-29T03:30:02.569Z,21.12
2019-01-29T03:32:29.900Z,18.00
2019-01-29T03:34:57.344Z,16.55
2019-01-29T03:37:24.765Z,17.15
2019-01-29T03:39:52.064Z,18.17
2019-01-29T03:42:19.263Z,13.80
2019-01-29T03:44:46.724Z,16.17
2019-01-29T03:47:14.108Z,15.23
2019-01-29T03:49:41.410Z,14.93
2019-01-29T03:52:08.789Z,13.38
2019-01-29T03:54:36.084Z,13.00
2019-01-29T03:57:03.392Z,12.15
2019-01-29T03:59:30.706Z,11.78
2019-01-29T04:01:57.904Z,11.43
2019-01-29T04:04:25.225Z,11.83
2019-01-29T04:06:52.577Z,13.22
2019-01-29T04:09:19.888Z,13.45
2019-01-29T04:11:47.511Z,12.95
2019-01-29T04:14:14.937Z,9.83
2019-01-29T04:16:42.326Z,10.75
2019-01-29T04:19:09.674Z,8.78
2019-01-29T04:21:37.074Z,11.85
2019-01-29T04:24:04.459Z,13.32
2019-01-29T04:26:32.201Z,14.83
2019-01-29T04:28:59.515Z,11.73
2019-01-29T04:31:26.811Z,9.28
2019-01-29T04:33:54.114Z,9.18
2019-01-29T04:36:21.420Z,10.30
2019-01-29T04:38:48.753Z,10.72
2019-01-29T04:41:16.157Z,11.12
2019-01-29T04:43:43.463Z,9.50
2019-01-29T04:46:10.763Z,9.65
2019-01-29T04:48:38.067Z,10.78
2019-01-29T04:51:05.428Z,10.65
2019-01-29T04:53:33.040Z,9.50
2019-01-29T04:56:00.363Z,9.50
2019-01-29T04:58:28.255Z,10.65
2019-01-29T05:00:55.647Z,9.38
2019-01-29T05:03:23.226Z,6.62
2019-01-29T05:05:50.643Z,5.40
2019-01-29T05:08:18.308Z,6.50
2019-01-29T05:10:45.642Z,6.33
2019-01-29T05:13:13.311Z,6.17
2019-01-29T05:15:40.718Z,7.05
2019-01-29T05:18:08.026Z,9.28
2019-01-29T05:20:35.333Z,7.08
2019-01-29T05:23:02.808Z,7.47
2019-01-29T05:25:30.192Z,12.65
2019-01-29T05:27:57.459Z,13.58
2019-01-29T05:30:25.101Z,13.70
2019-01-29T05:32:52.396Z,17.37
2019-01-29T05:35:20.239Z,15.28
2019-01-29T05:37:47.637Z,13.40
2019-01-29T05:40:16.166Z,15.30
2019-01-29T05:42:43.503Z,15.20
2019-01-29T05:45:12.695Z,17.35
2019-01-29T05:47:40.654Z,18.00
2019-01-29T05:50:09.341Z,14.38
2019-01-29T05:52:36.706Z,16.55
2019-01-29T05:55:04.636Z,14.60
2019-01-29T05:57:32.025Z,13.25
2019-01-29T05:59:59.318Z,13.45
2019-01-29T06:02:26.731Z,16.90
2019-01-29T06:04:54.055Z,17.70
2019-01-29T06:07:21.420Z,12.65
2019-01-29T06:09:48.825Z,13.05
2019-01-29T06:12:17.072Z,14.83
2019-01-29T06:14:44.371Z,15.48
2019-01-29T06:17:11.689Z,13.05
2019-01-29T06:19:39.032Z,13.05
2019-01-29T06:22:06.419Z,11.50
2019-01-29T06:24:33.843Z,12.55
2019-01-29T06:27:01.159Z,14.47
2019-01-29T06:29:28.558Z,14.65
2019-01-29T06:31:55.956Z,15.23
2019-01-29T06:34:23.257Z,16.02
2019-01-29T06:36:50.959Z,14.93
2019-01-29T06:39:18.547Z,12.43
2019-01-29T06:41:45.901Z,11.50
2019-01-29T06:44:13.285Z,9.05
2019-01-29T06:46:40.637Z,8.00
2019-01-29T06:49:08.136Z,8.18
2019-01-29T06:51:35.452Z,11.18
2019-01-29T06:54:02.885Z,9.03
2019-01-29T06:56:30.257Z,9.00
2019-01-29T06:58:57.821Z,8.05
2019-01-29T07:01:25.304Z,7.85
2019-01-29T07:03:52.665Z,6.67
2019-01-29T07:06:20.108Z,7.92
2019-01-29T07:08:47.577Z,7.10
2019-01-29T07:11:15.121Z,8.08
2019-01-29T07:13:42.607Z,9.40
2019-01-29T07:16:32.348Z,10.05
2019-01-29T07:19:03.808Z,9.25
2019-01-29T07:21:31.235Z,8.75
2019-01-29T07:23:58.578Z,11.05
2019-01-29T07:26:26.007Z,10.48
2019-01-29T07:28:53.536Z,15.28
2019-01-29T07:31:21.020Z,14.18
2019-01-29T07:33:48.452Z,12.25
2019-01-29T07:36:15.930Z,11.30
2019-01-29T07:38:43.361Z,11.10
2019-01-29T07:41:10.693Z,10.23
2019-01-29T07:43:38.059Z,9.33
2019-01-29T07:46:05.360Z,7.75
2019-01-29T07:48:32.778Z,9.13
2019-01-29T07:51:00.178Z,9.75
2019-01-29T07:53:27.584Z,10.13
2019-01-29T07:55:55.418Z,8.98
2019-01-29T07:58:22.786Z,9.83
2019-01-29T08:00:50.079Z,11.43
2019-01-29T08:03:17.509Z,12.37
2019-01-29T08:05:45.479Z,10.60
2019-01-29T08:08:13.024Z,10.65
2019-01-29T08:10:40.323Z,10.95
2019-01-29T08:13:07.745Z,10.95
2019-01-29T08:15:37.356Z,9.30
2019-01-29T08:18:05.738Z,9.30
2019-01-29T08:20:33.139Z,8.13
2019-01-29T08:23:00.424Z,10.75
2019-01-29T08:25:27.690Z,10.03
2019-01-29T08:27:55.003Z,8.98
2019-01-29T08:30:22.298Z,9.83
2019-01-29T08:32:49.611Z,8.90
2019-01-29T08:35:16.968Z,9.30
2019-01-29T08:37:44.349Z,9.10
2019-01-29T08:40:11.798Z,10.05
2019-01-29T08:42:39.255Z,9.25
2019-01-29T08:45:07.654Z,10.40
2019-01-29T08:47:34.997Z,11.48
2019-01-29T08:50:02.298Z,12.43
2019-01-29T08:52:30.157Z,11.65
2019-01-29T08:54:57.971Z,12.40
2019-01-29T08:57:25.660Z,13.10
2019-01-29T08:59:52.971Z,14.55
2019-01-29T09:02:20.367Z,11.53
2019-01-29T09:04:50.173Z,12.68
2019-01-29T09:07:17.461Z,16.70
2019-01-29T09:09:44.817Z,18.20
2019-01-29T09:12:12.215Z,14.60
2019-01-29T09:14:39.516Z,14.80
2019-01-29T09:17:06.836Z,14.98
2019-01-29T09:19:34.479Z,14.40
2019-01-29T09:22:01.671Z,15.38
2019-01-29T09:24:29.008Z,18.17
2019-01-29T09:26:56.338Z,18.67
2019-01-29T09:29:23.636Z,17.60
2019-01-29T09:31:50.954Z,17.82
2019-01-29T09:34:18.293Z,18.62
2019-01-29T09:36:45.698Z,21.80
2019-01-29T09:39:13.334Z,18.98
2019-01-29T09:41:40.833Z,20.50
2019-01-29T09:44:08.248Z,20.57
2019-01-29T09:46:35.573Z,20.92
2019-01-29T09:49:03.218Z,22.93
2019-01-29T09:51:30.677Z,22.02
2019-01-29T09:53:58.226Z,22.82
2019-01-29T09:56:28.117Z,21.93
2019-01-29T09:58:55.523Z,18.32
2019-01-29T10:01:22.919Z,16.07
2019-01-29T10:03:51.342Z,21.17
2019-01-29T10:06:20.904Z,21.82
2019-01-29T10:08:51.407Z,18.92
2019-01-29T10:11:18.816Z,17.95
2019-01-29T10:13:46.322Z,19.42
2019-01-29T10:16:13.660Z,16.82
2019-01-29T10:18:41.280Z,18.07
2019-01-29T10:21:08.592Z,18.10
2019-01-29T10:23:35.919Z,19.55
2019-01-29T10:26:03.334Z,22.05
2019-01-29T10:28:30.674Z,21.35
2019-01-29T10:30:58.103Z,19.15
2019-01-29T10:33:25.528Z,22.30
2019-01-29T10:35:53.125Z,21.85
2019-01-29T10:38:20.528Z,23.32
2019-01-29T10:40:47.863Z,20.60
2019-01-29T10:43:15.163Z,18.95
2019-01-29T10:45:42.496Z,19.40
2019-01-29T10:48:09.883Z,19.40
2019-01-29T10:50:37.231Z,35.43
2019-01-29T10:53:04.756Z,24.85
2019-01-29T10:55:32.162Z,24.50
2019-01-29T10:57:59.566Z,32.35
2019-01-29T11:00:29.873Z,52.58
2019-01-29T11:02:57.183Z,33.73
2019-01-29T11:05:24.582Z,46.75
2019-01-29T11:07:52.004Z,16.27
2019-01-29T11:10:19.618Z,5.60
2019-01-29T11:12:46.902Z,6.12
2019-01-29T11:15:23.116Z,34.40
2019-01-29T11:17:50.415Z,77.03
2019-01-29T11:20:18.121Z,7.28
2019-01-29T11:22:45.526Z,6.12
2019-01-29T11:25:16.198Z,7.03
2019-01-29T11:27:43.855Z,89.45
2019-01-29T11:30:13.149Z,12.85
2019-01-29T11:32:40.465Z,6.20
2019-01-29T11:35:08.033Z,6.05
2019-01-29T11:37:35.433Z,19.30
2019-01-29T11:40:02.975Z,40.05
2019-01-29T11:42:30.361Z,6.15
2019-01-29T11:44:57.706Z,6.58
2019-01-29T11:47:25.108Z,5.83
2019-01-29T11:49:52.785Z,6.35
2019-01-29T11:52:20.193Z,6.50
2019-01-29T11:54:47.607Z,5.90
2019-01-29T11:57:15.038Z,78.80
2019-01-29T11:59:44.593Z,26.93
2019-01-29T12:02:14.652Z,41.95
2019-01-29T12:04:42.364Z,5.30
2019-01-29T12:07:09.737Z,6.60
2019-01-29T12:09:37.172Z,5.40
2019-01-29T12:12:06.391Z,17.10
2019-01-29T12:14:33.882Z,6.10
2019-01-29T12:17:01.326Z,5.80
2019-01-29T12:19:28.714Z,5.87
2019-01-29T12:21:56.342Z,5.62
2019-01-29T12:24:23.631Z,4.80
2019-01-29T12:26:50.976Z,2.80
2019-01-29T12:29:18.280Z,5.53
2019-01-29T12:31:45.667Z,5.08
2019-01-29T12:34:12.981Z,4.65
2019-01-29T12:36:40.511Z,5.50
2019-01-29T12:39:08.184Z,4.97
2019-01-29T12:41:35.521Z,5.53
2019-01-29T12:44:02.854Z,5.47
2019-01-29T12:46:30.239Z,4.83
2019-01-29T12:48:57.687Z,5.10
2019-01-29T12:51:34.130Z,4.92
2019-01-29T12:54:01.494Z,5.28
2019-01-29T12:56:28.886Z,5.37
2019-01-29T12:58:56.283Z,4.90
2019-01-29T13:01:23.644Z,4.53
2019-01-29T13:03:51.023Z,5.55
2019-01-29T13:06:18.376Z,5.00
2019-01-29T13:08:45.804Z,5.20
2019-01-29T13:11:13.174Z,4.67
2019-01-29T13:13:40.518Z,4.78
2019-01-29T13:16:07.959Z,4.97
2019-01-29T13:18:35.267Z,4.45
2019-01-29T13:21:02.613Z,4.00
2019-01-29T13:23:30.005Z,5.30
2019-01-29T13:25:57.423Z,5.37
2019-01-29T13:28:25.873Z,4.95
2019-01-29T13:30:53.200Z,4.70
2019-01-29T13:33:20.767Z,5.35
2019-01-29T13:35:48.222Z,5.92
2019-01-29T13:38:15.665Z,5.30
2019-01-29T13:40:43.051Z,5.40
2019-01-29T13:43:10.499Z,5.37
2019-01-29T13:45:38.300Z,5.12
2019-01-29T13:48:06.149Z,4.55
2019-01-29T13:50:41.212Z,4.67
2019-01-29T13:53:10.706Z,4.50
2019-01-29T13:55:38.126Z,5.22
2019-01-29T13:58:06.756Z,5.45
2019-01-29T14:00:34.622Z,5.37
2019-01-29T14:03:02.149Z,4.28
2019-01-29T14:05:29.737Z,5.47
2019-01-29T14:07:57.261Z,4.83
2019-01-29T14:10:25.269Z,4.42
2019-01-29T14:12:52.770Z,3.85
2019-01-29T14:15:42.250Z,3.50
2019-01-29T14:18:10.445Z,4.60
2019-01-29T14:20:37.783Z,3.65
2019-01-29T14:23:06.524Z,4.12
2019-01-29T14:25:33.871Z,3.58
2019-01-29T14:28:02.231Z,4.30
2019-01-29T14:30:29.692Z,3.87
2019-01-29T14:32:57.091Z,4.78
2019-01-29T14:35:24.499Z,4.08
2019-01-29T14:38:45.918Z,3.90
2019-01-29T14:41:14.714Z,4.45
2019-01-29T14:43:45.547Z,4.08
2019-01-29T14:46:12.993Z,3.98
2019-01-29T14:48:40.423Z,4.17
2019-01-29T14:51:07.769Z,4.28
2019-01-29T14:53:35.107Z,4.40
2019-01-29T14:56:02.623Z,4.00
2019-01-29T14:58:30.447Z,4.45
2019-01-29T15:00:58.188Z,4.80
2019-01-29T15:03:27.113Z,4.08
2019-01-29T15:05:54.513Z,4.08
2019-01-29T15:08:22.119Z,4.30
2019-01-29T15:10:49.473Z,3.22
2019-01-29T15:13:16.923Z,4.35
2019-01-29T15:15:51.203Z,3.92
2019-01-29T15:18:25.339Z,3.70
2019-01-29T15:20:52.684Z,5.00
2019-01-29T15:23:20.117Z,4.05
2019-01-29T15:25:48.704Z,3.85
2019-01-29T15:28:16.060Z,4.08
2019-01-29T15:30:43.436Z,3.45
2019-01-29T15:33:12.246Z,3.67
2019-01-29T15:35:39.657Z,3.33
2019-01-29T15:38:07.296Z,3.17
2019-01-29T15:40:34.726Z,3.20
2019-01-29T15:43:02.181Z,3.40
2019-01-29T15:45:29.633Z,3.40
2019-01-29T15:47:57.086Z,3.55
2019-01-29T15:50:24.601Z,3.70
2019-01-29T15:52:51.981Z,3.45
2019-01-29T15:55:19.547Z,3.30
2019-01-29T15:57:47.538Z,4.75
2019-01-29T16:00:18.227Z,4.10
2019-01-29T16:02:45.536Z,4.40
2019-01-29T16:05:16.968Z,4.25
2019-01-29T16:07:44.346Z,4.05
2019-01-29T16:10:14.063Z,87.33
2019-01-29T16:12:41.484Z,19.67
2019-01-29T16:15:10.717Z,81.35
2019-01-29T16:17:38.177Z,54.33
2019-01-29T16:20:06.490Z,79.30
2019-01-29T16:22:33.932Z,56.45
2019-01-29T16:25:01.381Z,51.15
2019-01-29T16:27:28.805Z,44.42
2019-01-29T16:29:56.555Z,26.70
2019-01-29T16:32:23.878Z,32.63
2019-01-29T16:34:51.430Z,27.27
2019-01-29T16:37:18.810Z,23.38
2019-01-29T16:39:46.292Z,24.35
2019-01-29T16:42:13.682Z,26.77
2019-01-29T16:44:41.126Z,21.65
2019-01-29T16:47:08.488Z,25.35
2019-01-29T16:49:35.967Z,30.52
2019-01-29T16:52:03.822Z,24.95
2019-01-29T16:54:31.716Z,43.28
2019-01-29T16:56:59.172Z,63.23
2019-01-29T16:59:26.534Z,66.00
2019-01-29T17:01:54.344Z,42.73
2019-01-29T17:04:21.800Z,53.28
2019-01-29T17:06:49.272Z,53.42
2019-01-29T17:09:17.682Z,38.40
2019-01-29T17:11:45.182Z,46.65
2019-01-29T17:14:12.646Z,34.80
2019-01-29T17:16:40.043Z,39.23
2019-01-29T17:19:07.466Z,42.98
2019-01-29T17:21:35.231Z,46.20
2019-01-29T17:24:02.610Z,47.73
2019-01-29T17:26:31.137Z,43.02
2019-01-29T17:28:58.851Z,39.85
2019-01-29T17:31:26.318Z,36.98
2019-01-29T17:33:54.051Z,31.50
2019-01-29T17:36:21.502Z,41.37
2019-01-29T17:38:49.137Z,41.10
2019-01-29T17:41:16.585Z,46.88
2019-01-29T17:43:44.075Z,41.13
2019-01-29T17:46:11.519Z,48.10
2019-01-29T17:48:39.038Z,44.83
2019-01-29T17:51:06.967Z,36.25
2019-01-29T17:53:34.356Z,41.55
2019-01-29T17:56:01.989Z,40.60
2019-01-29T17:58:29.458Z,33.63
2019-01-29T18:00:59.923Z,37.55
2019-01-29T18:03:27.395Z,31.55
2019-01-29T18:05:54.840Z,44.58
2019-01-29T18:08:22.784Z,40.10
2019-01-29T18:10:50.251Z,43.10
2019-01-29T18:13:17.779Z,33.25
2019-01-29T18:15:45.341Z,36.42
2019-01-29T18:18:12.833Z,36.88
2019-01-29T18:20:40.307Z,40.58
2019-01-29T18:23:07.833Z,44.75
2019-01-29T18:25:35.343Z,67.67
2019-01-29T18:28:02.919Z,67.87
2019-01-29T18:30:31.528Z,52.58
2019-01-29T18:32:59.052Z,52.90
2019-01-29T18:35:26.568Z,30.55
2019-01-29T18:37:54.241Z,22.20
2019-01-29T18:40:24.623Z,24.45
2019-01-29T18:42:52.316Z,23.47
2019-01-29T18:45:19.888Z,26.35
2019-01-29T18:47:47.673Z,25.30
2019-01-29T18:50:15.745Z,22.52
2019-01-29T18:52:43.227Z,24.95
2019-01-29T18:55:11.042Z,24.65
2019-01-29T18:57:38.728Z,23.18
2019-01-29T19:00:10.734Z,21.42
2019-01-29T19:02:38.157Z,22.77
2019-01-29T19:05:06.983Z,21.37
2019-01-29T19:07:34.543Z,19.20
2019-01-29T19:10:02.127Z,20.88
2019-01-29T19:12:29.697Z,21.00
2019-01-29T19:14:57.221Z,21.35
2019-01-29T19:17:24.780Z,19.62
2019-01-29T19:19:52.873Z,19.17
2019-01-29T19:22:22.654Z,18.98
2019-01-29T19:24:49.777Z,21.27
2019-01-29T19:27:17.316Z,17.90
2019-01-29T19:29:45.460Z,18.55
2019-01-29T19:32:12.995Z,20.08
2019-01-29T19:34:41.013Z,19.50
2019-01-29T19:37:08.490Z,19.05
2019-01-29T19:39:36.002Z,19.73
2019-01-29T19:42:03.667Z,19.45
2019-01-29T19:44:31.321Z,20.82
2019-01-29T19:46:58.906Z,20.37
2019-01-29T19:49:26.528Z,21.57
2019-01-29T19:51:54.572Z,24.60
2019-01-29T19:54:22.357Z,23.10
2019-01-29T19:56:50.306Z,20.50
2019-01-29T19:59:18.432Z,19.20
2019-01-29T20:01:46.015Z,20.75
2019-01-29T20:04:13.684Z,25.52
2019-01-29T20:06:41.225Z,19.67
2019-01-29T20:09:11.924Z,20.00
2019-01-29T20:11:39.528Z,18.60
2019-01-29T20:14:07.531Z,18.75
2019-01-29T20:16:35.134Z,17.80
2019-01-29T20:19:02.920Z,19.62
2019-01-29T20:21:30.629Z,19.42
2019-01-29T20:23:58.425Z,17.62
2019-01-29T20:26:26.188Z,23.07
2019-01-29T20:28:53.773Z,22.65
2019-01-29T20:31:21.351Z,19.75
2019-01-29T20:33:49.113Z,27.77
2019-01-29T20:36:16.745Z,21.12
2019-01-29T20:38:44.700Z,27.27
2019-01-29T20:41:12.325Z,19.12
2019-01-29T20:43:39.994Z,16.75
2019-01-29T20:46:07.668Z,19.07
2019-01-29T20:48:35.290Z,25.70
2019-01-29T20:51:02.939Z,33.10
2019-01-29T20:53:30.492Z,22.52
2019-01-29T20:55:58.076Z,38.55
2019-01-29T20:58:25.549Z,42.45
2019-01-29T21:00:53.026Z,25.80
2019-01-29T21:03:20.773Z,25.17
2019-01-29T21:05:48.277Z,25.85
2019-01-29T21:08:16.112Z,32.70
2019-01-29T21:10:43.562Z,26.87
2019-01-29T21:13:11.105Z,33.78
2019-01-29T21:15:38.878Z,23.05
2019-01-29T21:18:06.545Z,28.45
2019-01-29T21:20:35.822Z,28.67
2019-01-29T21:23:03.585Z,39.18
2019-01-29T21:25:30.946Z,25.75
2019-01-29T21:27:58.405Z,24.52
2019-01-29T21:30:28.205Z,19.23
2019-01-29T21:32:55.700Z,26.62
2019-01-29T21:35:23.145Z,29.35
2019-01-29T21:37:50.927Z,28.05
2019-01-29T21:40:18.847Z,28.35
2019-01-29T21:42:46.426Z,30.88
2019-01-29T21:45:14.799Z,29.37
2019-01-29T21:47:42.466Z,26.45
2019-01-29T21:50:13.395Z,23.55
2019-01-29T21:52:40.866Z,30.12
2019-01-29T21:55:08.471Z,22.45
2019-01-29T21:57:35.934Z,25.48
2019-01-29T22:00:06.791Z,20.82
2019-01-29T22:02:34.086Z,40.90
2019-01-29T22:05:01.487Z,21.27
2019-01-29T22:07:28.896Z,15.88
2019-01-29T22:09:56.318Z,22.93
2019-01-29T22:12:23.752Z,33.18
2019-01-29T22:14:51.164Z,28.62
2019-01-29T22:17:18.534Z,22.60
2019-01-29T22:19:45.971Z,20.65
2019-01-29T22:22:13.335Z,29.52
2019-01-29T22:24:40.741Z,28.38
2019-01-29T22:27:08.095Z,32.17
2019-01-29T22:29:35.464Z,10.65
2019-01-29T22:32:02.846Z,33.20
2019-01-29T22:34:30.186Z,18.92
2019-01-29T22:36:57.545Z,21.00
2019-01-29T22:39:24.966Z,9.15
2019-01-29T22:41:52.759Z,9.15
2019-01-29T22:44:20.087Z,9.33
2019-01-29T22:46:47.543Z,8.43
2019-01-29T22:49:14.967Z,9.10
2019-01-29T22:51:42.323Z,8.23
2019-01-29T22:54:09.660Z,11.45
2019-01-29T22:56:37.143Z,15.72
2019-01-29T22:59:05.275Z,8.35
2019-01-29T23:01:38.178Z,8.40
2019-01-29T23:04:23.212Z,8.70
2019-01-29T23:07:11.649Z,10.13
2019-01-29T23:09:39.076Z,7.70
2019-01-29T23:12:06.476Z,7.70
2019-01-29T23:14:34.112Z,9.50
2019-01-29T23:17:01.545Z,10.40
2019-01-29T23:19:28.867Z,9.15
2019-01-29T23:21:56.376Z,9.10
2019-01-29T23:24:23.736Z,9.95
2019-01-29T23:26:51.106Z,9.50
2019-01-29T23:29:18.462Z,9.45
2019-01-29T23:31:45.763Z,10.43
2019-01-29T23:34:13.080Z,9.93
2019-01-29T23:36:40.395Z,11.00
2019-01-29T23:39:08.598Z,10.82
2019-01-29T23:41:35.935Z,10.00
2019-01-29T23:44:03.492Z,10.53
2019-01-29T23:46:30.837Z,10.28
2019-01-29T23:48:58.271Z,9.05
2019-01-29T23:51:25.672Z,9.55
2019-01-29T23:53:53.019Z,9.65
2019-01-29T23:56:20.330Z,9.13
2019-01-29T23:58:47.684Z,8.55
